Terminal Aerodrome Forecast
Issued by NWS

Home | Current Version | Previous Version | Text Only | Print | Product List | Glossary On
Versions: 1 2 3 4 5 6 7 8 9 10 11 12 13 14 15 16 17 18 19 20 21 22 23 24 25 26 27
000
FTUS46 KSGX 201723
TAFSAN
TAF
KSAN 201723Z 2018/2124 VRB06KT P6SM SCT030 BKN040
     FM202000 24008KT P6SM SCT030 SCT040
     FM202300 VRB05KT P6SM SCT015 SCT025
     FM212000 30009KT P6SM SCT100=

USA.gov is the U.S. government's official web portal to all federal, state and local government web resources and services.